Time;durP1;ratioP1;P1;durP2;ratioP2;P2;SDS_P1;SDS_P2;PMS_P1;PMS_P2;Temp;Humidity;BMP_temperature;BMP_pressure;BME280_temperature;BME280_humidity;BME280_pressure;Samples;Min_cycle;Max_cycle;Signal;HPM_P1;HPM_P2
2023/03/18 00:00:37;;;;;;;49.17;21.67;;;;;;;2.03;71.04;95642.34;5031499;28;20065;-78
2023/03/18 00:03:03;;;;;;;48.97;22.95;;;;;;;2.14;70.77;95640.84;5030705;28;20068;-78
2023/03/18 00:05:29;;;;;;;51.42;22.30;;;;;;;1.90;70.45;95587.47;5030795;28;20455;-78
2023/03/18 00:07:56;;;;;;;51.08;22.85;;;;;;;1.80;70.44;95581.88;5013722;28;20686;-78
2023/03/18 00:10:21;;;;;;;48.10;23.95;;;;;;;2.35;70.66;95655.44;5031608;28;20033;-78
2023/03/18 00:12:47;;;;;;;59.03;24.15;;;;;;;1.87;70.68;95575.59;5030682;28;20048;-78
2023/03/18 00:15:15;;;;;;;54.08;24.15;;;;;;;2.38;70.29;95655.81;5031645;28;20048;-78
2023/03/18 00:17:41;;;;;;;58.83;25.23;;;;;;;1.24;70.23;95470.16;5031113;28;20036;-78
2023/03/18 00:20:08;;;;;;;60.92;24.65;;;;;;;1.22;70.58;95458.31;5031695;28;20033;-79
2023/03/18 00:22:35;;;;;;;48.95;23.77;;;;;;;2.40;71.01;95642.53;5030381;28;20465;-79
2023/03/18 00:25:00;;;;;;;62.80;27.40;;;;;;;2.41;70.51;95644.13;5031699;28;20083;-79
2023/03/18 00:27:26;;;;;;;53.60;26.58;;;;;;;1.78;70.51;95534.22;5031276;28;20041;-79
2023/03/18 00:29:52;;;;;;;57.47;27.70;;;;;;;2.37;70.40;95642.94;5013602;28;20407;-79
2023/03/18 00:32:17;;;;;;;61.53;27.08;;;;;;;2.39;70.33;95635.69;5030183;28;20048;-79
2023/03/18 00:34:42;;;;;;;76.07;31.05;;;;;;;2.04;70.67;95588.19;5031718;28;20061;-78
2023/03/18 00:37:09;;;;;;;69.43;28.70;;;;;;;2.40;70.77;95627.63;5029637;28;20662;-78
2023/03/18 00:39:36;;;;;;;73.07;29.60;;;;;;;1.70;70.83;95540.50;5031773;28;20484;-78
2023/03/18 00:42:09;;;;;;;79.10;31.88;;;;;;;1.73;70.42;95555.78;5027024;28;20124;-78
2023/03/18 00:44:35;;;;;;;75.93;34.08;;;;;;;1.36;71.63;95520.75;5031218;28;20037;-78
2023/03/18 00:47:00;;;;;;;76.97;33.10;;;;;;;1.81;71.07;95565.19;5031073;28;20068;-78
2023/03/18 00:49:26;;;;;;;89.78;33.67;;;;;;;1.70;70.88;95529.22;5029307;28;20465;-79
2023/03/18 00:51:51;;;;;;;83.93;34.67;;;;;;;1.49;70.85;95491.94;5031426;28;20060;-79
2023/03/18 00:54:19;;;;;;;81.80;35.13;;;;;;;2.08;70.81;95597.22;5029811;28;20029;-79
2023/03/18 00:56:45;;;;;;;85.18;37.00;;;;;;;1.76;71.48;95549.31;5012775;28;20581;-79
2023/03/18 00:59:12;;;;;;;87.28;36.90;;;;;;;2.12;70.89;95601.03;5028041;28;20029;-79
2023/03/18 01:01:37;;;;;;;85.00;38.80;;;;;;;0.98;71.07;95420.66;5028625;28;20037;-78
2023/03/18 01:04:03;;;;;;;100.90;40.63;;;;;;;1.95;71.34;95571.94;5030352;28;20659;-78
2023/03/18 01:06:31;;;;;;;101.65;40.88;;;;;;;1.81;70.91;95560.75;5030306;28;20084;-78
2023/03/18 01:08:57;;;;;;;97.35;40.95;;;;;;;2.13;71.15;95600.81;5030094;28;20045;-78
2023/03/18 01:11:24;;;;;;;85.25;37.92;;;;;;;1.79;71.10;95544.47;5030458;28;20033;-78
2023/03/18 01:13:51;;;;;;;97.15;38.45;;;;;;;1.07;70.81;95448.91;5030220;28;20463;-78
2023/03/18 01:16:18;;;;;;;83.78;38.03;;;;;;;1.39;71.32;95494.19;5030395;28;20446;-78
2023/03/18 01:18:44;;;;;;;86.10;37.92;;;;;;;1.53;70.96;95519.25;5029981;28;20520;-78
2023/03/18 01:21:10;;;;;;;80.45;36.13;;;;;;;2.00;71.17;95589.63;5013191;28;20065;-78
2023/03/18 01:23:36;;;;;;;79.40;36.83;;;;;;;2.01;71.04;95589.41;5030112;28;20044;-78
2023/03/18 01:26:03;;;;;;;88.95;37.13;;;;;;;1.99;70.90;95580.97;5030308;28;20033;-78
2023/03/18 01:28:29;;;;;;;87.28;34.97;;;;;;;2.02;71.20;95585.78;5030648;28;20163;-79
2023/03/18 01:30:56;;;;;;;84.05;36.58;;;;;;;1.99;71.17;95585.38;5030085;28;20112;-79
2023/03/18 01:33:22;;;;;;;79.45;34.75;;;;;;;1.48;71.15;95500.78;5030549;28;20029;-79
2023/03/18 01:35:54;;;;;;;86.80;35.72;;;;;;;1.75;70.88;95539.88;5012523;28;20050;-79
2023/03/18 01:38:20;;;;;;;75.72;35.30;;;;;;;1.84;71.29;95564.75;5028956;28;20479;-78
2023/03/18 01:40:46;;;;;;;87.78;35.95;;;;;;;1.97;71.43;95588.25;5029518;28;20039;-78
2023/03/18 01:43:22;;;;;;;77.55;36.05;;;;;;;1.46;71.28;95504.63;5030694;28;20472;-78
2023/03/18 01:45:54;;;;;;;74.68;34.03;;;;;;;1.65;71.02;95516.00;5030408;28;20080;-79
2023/03/18 01:48:25;;;;;;;87.90;34.38;;;;;;;2.01;71.00;95580.75;5025912;28;20044;-78
2023/03/18 01:50:58;;;;;;;88.95;38.55;;;;;;;1.37;71.28;95484.97;5013032;28;20140;-78
2023/03/18 01:53:28;;;;;;;83.65;35.70;;;;;;;2.02;70.78;95583.16;5030335;28;20325;-78
2023/03/18 01:55:56;;;;;;;85.75;36.85;;;;;;;1.42;70.84;95495.59;5030221;28;20116;-78
2023/03/18 01:58:28;;;;;;;83.82;38.83;;;;;;;1.67;70.98;95516.59;5029060;28;20033;-78
2023/03/18 02:00:59;;;;;;;84.38;38.30;;;;;;;1.85;70.98;95563.75;5010891;28;20033;-78
2023/03/18 02:03:26;;;;;;;;;;;;;;;1.99;71.18;95570.50;5029116;28;20099;-78
2023/03/18 02:05:52;;;;;;;92.78;35.70;;;;;;;1.91;71.32;95565.50;5029146;28;19917;-78
2023/03/18 02:08:18;;;;;;;86.10;36.67;;;;;;;1.71;70.79;95523.78;5028218;28;20518;-79
2023/03/18 02:10:44;;;;;;;78.00;36.15;;;;;;;1.06;71.11;95426.44;5028314;28;20045;-79
2023/03/18 02:13:11;;;;;;;82.93;36.08;;;;;;;1.94;70.86;95559.88;5016345;28;20045;-79
2023/03/18 02:15:45;;;;;;;78.38;36.05;;;;;;;1.76;70.64;95531.81;5029943;28;20056;-78
2023/03/18 02:18:18;;;;;;;77.68;35.97;;;;;;;1.89;70.80;95559.72;5028333;28;20096;-78
2023/03/18 02:20:54;;;;;;;84.03;35.17;;;;;;;1.86;71.05;95555.69;5011989;28;20125;-78
2023/03/18 02:23:41;;;;;;;73.75;34.38;;;;;;;1.86;71.12;95562.72;5029415;28;20092;-78
2023/03/18 02:26:19;;;;;;;91.30;35.50;;;;;;;1.86;70.72;95570.59;5029368;28;20037;-78
2023/03/18 02:28:47;;;;;;;85.35;35.92;;;;;;;1.65;70.89;95534.28;5028196;28;20045;-78
2023/03/18 02:31:15;;;;;;;80.85;36.60;;;;;;;1.89;71.03;95570.19;5029873;28;20122;-78
2023/03/18 02:33:42;;;;;;;87.20;37.40;;;;;;;1.87;70.48;95566.97;5028962;28;20029;-78
2023/03/18 02:36:20;;;;;;;81.43;33.58;;;;;;;1.03;71.04;95436.50;5028482;28;20034;-77
2023/03/18 02:38:46;;;;;;;87.05;36.40;;;;;;;1.24;70.80;95479.78;5028223;28;20117;-78
2023/03/18 02:41:18;;;;;;;85.13;35.38;;;;;;;1.35;71.26;95500.06;5028574;28;20033;-77
2023/03/18 02:43:44;;;;;;;88.22;37.05;;;;;;;1.82;70.97;95572.81;5029527;28;20137;-76
2023/03/18 02:46:31;;;;;;;89.30;36.05;;;;;;;1.69;71.16;95538.06;5029437;28;20063;-76
2023/03/18 02:48:59;;;;;;;82.72;34.92;;;;;;;1.77;70.86;95566.59;5029529;28;20043;-76
2023/03/18 02:51:25;;;;;;;71.43;33.13;;;;;;;1.64;70.88;95554.41;5028659;28;20041;-76
2023/03/18 02:53:59;;;;;;;80.53;35.80;;;;;;;1.23;70.96;95486.03;5028811;28;20064;-76
2023/03/18 02:56:25;;;;;;;76.93;35.10;;;;;;;1.07;71.43;95477.66;5029175;28;20527;-76
2023/03/18 02:58:51;;;;;;;77.57;35.70;;;;;;;1.67;71.53;95561.84;5027803;28;20033;-76
2023/03/18 03:01:17;;;;;;;91.32;39.03;;;;;;;1.69;71.30;95564.22;5029474;28;20045;-76
2023/03/18 03:03:42;;;;;;;93.78;38.05;;;;;;;1.01;70.85;95454.97;5028880;28;20029;-76
2023/03/18 03:06:09;;;;;;;88.40;37.40;;;;;;;1.51;71.02;95536.19;5028934;28;20033;-76
2023/03/18 03:08:36;;;;;;;89.30;37.58;;;;;;;1.67;71.38;95567.06;5029371;28;20041;-76
2023/03/18 03:11:01;;;;;;;77.38;35.03;;;;;;;1.01;71.22;95470.66;5027889;28;20392;-76
2023/03/18 03:13:27;;;;;;;78.72;34.85;;;;;;;1.29;71.29;95514.75;5029457;28;20040;-76
2023/03/18 03:15:53;;;;;;;81.05;34.80;;;;;;;1.66;71.20;95569.88;5028354;28;20784;-76
2023/03/18 03:18:19;;;;;;;81.15;34.63;;;;;;;1.23;71.21;95504.31;5011489;28;20503;-77
2023/03/18 03:20:45;;;;;;;72.18;32.92;;;;;;;0.69;70.59;95435.00;5011447;28;20033;-76
2023/03/18 03:23:12;;;;;;;86.68;33.17;;;;;;;1.29;70.48;95514.75;5011537;28;20041;-76
2023/03/18 03:25:38;;;;;;;75.47;32.75;;;;;;;1.30;70.81;95524.19;5027315;28;20037;-77
2023/03/18 03:28:06;;;;;;;75.45;32.83;;;;;;;1.61;70.55;95573.09;5029326;28;20096;-77
2023/03/18 03:30:32;;;;;;;74.00;33.28;;;;;;;1.09;70.57;95504.38;5029537;28;20049;-77
2023/03/18 03:32:59;;;;;;;80.10;32.10;;;;;;;1.39;70.66;95556.09;5027735;28;20060;-77
2023/03/18 03:35:25;;;;;;;75.93;32.72;;;;;;;1.58;70.66;95576.16;5028326;28;20134;-77
2023/03/18 03:37:50;;;;;;;89.15;33.05;;;;;;;1.35;71.06;95547.91;5029090;28;20048;-77
2023/03/18 03:40:17;;;;;;;83.95;33.78;;;;;;;1.01;70.68;95522.88;5011471;28;20037;-76
2023/03/18 03:42:44;;;;;;;77.38;32.95;;;;;;;0.88;70.51;95483.75;5029285;28;20072;-77
2023/03/18 03:45:10;;;;;;;73.35;33.58;;;;;;;1.26;70.45;95553.56;5010747;28;20094;-77
2023/03/18 03:47:37;;;;;;;67.18;31.23;;;;;;;1.16;70.79;95536.50;5031642;28;20416;-77
2023/03/18 03:50:04;;;;;;;74.70;30.45;;;;;;;1.07;70.98;95529.88;5030535;28;20033;-77
2023/03/18 03:52:30;;;;;;;60.83;31.20;;;;;;;0.99;71.27;95535.34;5030420;28;20029;-77
2023/03/18 03:54:57;;;;;;;83.50;33.20;;;;;;;1.38;70.60;95584.06;5031913;28;20033;-77
2023/03/18 03:57:25;;;;;;;72.60;31.48;;;;;;;1.29;70.82;95574.06;5031356;28;20045;-77
2023/03/18 03:59:50;;;;;;;70.63;30.65;;;;;;;1.13;71.04;95555.22;5030452;28;20418;-76
2023/03/18 04:02:16;;;;;;;73.65;29.95;;;;;;;1.04;70.51;95534.72;5031950;28;20144;-76
2023/03/18 04:04:42;;;;;;;66.07;30.73;;;;;;;1.36;70.46;95582.69;5030734;28;20025;-77
2023/03/18 04:07:08;;;;;;;72.88;29.20;;;;;;;1.31;70.46;95591.13;5030662;28;20037;-77
2023/03/18 04:09:35;;;;;;;72.75;31.80;;;;;;;1.30;70.52;95593.97;5014595;28;20025;-76
2023/03/18 04:12:01;;;;;;;71.07;31.77;;;;;;;0.58;70.85;95480.00;5031681;28;20033;-77
2023/03/18 04:14:27;;;;;;;74.57;29.17;;;;;;;1.01;70.83;95545.56;5031858;28;20485;-76
2023/03/18 04:16:54;;;;;;;66.78;30.80;;;;;;;0.33;70.70;95445.94;5030671;28;20045;-77
2023/03/18 04:19:20;;;;;;;69.35;30.02;;;;;;;0.93;70.91;95549.22;5030089;28;20033;-77
2023/03/18 04:21:45;;;;;;;70.75;29.95;;;;;;;1.29;70.60;95619.28;5030297;28;20034;-76
2023/03/18 04:24:11;;;;;;;68.82;30.13;;;;;;;0.62;70.58;95518.53;5013891;28;20030;-77
2023/03/18 04:26:36;;;;;;;59.20;28.13;;;;;;;0.25;70.58;95465.19;5031616;28;20033;-78
2023/03/18 04:29:02;;;;;;;65.43;29.65;;;;;;;0.75;70.84;95552.47;5013570;28;20393;-77
2023/03/18 04:31:28;;;;;;;59.10;29.80;;;;;;;1.12;71.38;95618.09;5031997;28;20049;-77
2023/03/18 04:33:54;;;;;;;64.13;29.73;;;;;;;1.12;71.27;95620.72;5029951;28;20053;-77
2023/03/18 04:36:19;;;;;;;70.03;29.55;;;;;;;0.81;71.18;95568.31;5031319;28;20135;-77
2023/03/18 04:38:45;;;;;;;75.22;30.73;;;;;;;0.71;71.11;95556.47;5030913;28;20033;-77
2023/03/18 04:41:10;;;;;;;65.00;28.48;;;;;;;0.46;70.99;95520.78;5030060;28;20033;-77
2023/03/18 04:43:36;;;;;;;62.00;28.50;;;;;;;0.95;70.96;95598.63;5031887;28;20072;-77
2023/03/18 04:46:01;;;;;;;62.22;29.45;;;;;;;0.27;71.17;95497.13;5030920;28;20456;-77
2023/03/18 04:48:27;;;;;;;69.10;28.02;;;;;;;0.86;70.88;95597.22;5027021;28;20594;-77
2023/03/18 04:50:53;;;;;;;55.08;24.48;;;;;;;1.12;71.24;95637.19;5030604;28;20037;-77
2023/03/18 04:53:19;;;;;;;48.67;22.75;;;;;;;0.70;70.91;95573.16;5031427;28;20119;-77
2023/03/18 04:55:45;;;;;;;56.90;24.38;;;;;;;0.95;70.71;95611.69;5030004;28;20069;-77
2023/03/18 04:58:11;;;;;;;44.65;22.48;;;;;;;0.49;71.38;95551.69;5028815;28;20065;-77
2023/03/18 05:00:36;;;;;;;46.05;22.70;;;;;;;0.25;71.57;95508.75;5029282;28;20040;-76
2023/03/18 05:03:02;;;;;;;46.97;20.92;;;;;;;1.04;71.45;95647.84;5030974;28;20026;-76
2023/03/18 05:05:28;;;;;;;44.20;21.00;;;;;;;0.88;71.38;95592.63;5013221;28;20033;-77
2023/03/18 05:07:53;;;;;;;45.33;21.88;;;;;;;0.64;71.25;95560.09;5029555;28;20558;-76
2023/03/18 05:10:20;;;;;;;45.58;17.63;;;;;;;0.49;71.01;95534.22;5030539;28;20065;-77
2023/03/18 05:12:46;;;;;;;61.35;22.60;;;;;;;0.59;70.99;95533.81;5031276;28;20122;-77
2023/03/18 05:15:11;;;;;;;42.75;19.88;;;;;;;1.09;70.96;95602.81;5029369;28;20033;-76
2023/03/18 05:17:38;;;;;;;43.70;20.38;;;;;;;0.96;70.89;95589.78;5030787;28;20060;-76
2023/03/18 05:20:04;;;;;;;40.72;17.00;;;;;;;0.18;70.20;95459.19;5012321;28;20037;-76
2023/03/18 05:22:30;;;;;;;34.35;15.35;;;;;;;1.04;70.12;95584.34;5031060;28;20411;-76
2023/03/18 05:24:55;;;;;;;32.40;15.82;;;;;;;1.34;70.07;95621.25;5030723;28;20029;-76
2023/03/18 05:27:22;;;;;;;25.67;13.45;;;;;;;0.68;69.88;95522.97;5029246;28;20538;-76
2023/03/18 05:29:49;;;;;;;27.70;13.07;;;;;;;1.22;70.44;95605.41;5030294;28;20060;-76
2023/03/18 05:32:15;;;;;;;28.45;13.15;;;;;;;1.36;70.44;95621.88;5030297;28;20537;-76
2023/03/18 05:34:41;;;;;;;29.80;14.05;;;;;;;1.41;70.50;95622.84;5030382;28;20064;-76
2023/03/18 05:37:08;;;;;;;28.73;13.23;;;;;;;1.21;69.95;95589.97;5030104;28;20033;-77
2023/03/18 05:39:34;;;;;;;37.08;15.00;;;;;;;1.09;69.87;95564.44;5030462;28;20125;-76
2023/03/18 05:42:01;;;;;;;50.17;17.67;;;;;;;1.50;70.03;95616.41;5011989;28;20120;-76
2023/03/18 05:44:27;;;;;;;42.20;16.17;;;;;;;1.63;69.70;95635.66;5030657;28;20044;-77
2023/03/18 05:46:53;;;;;;;32.05;16.45;;;;;;;1.45;70.17;95641.56;5029964;28;20033;-76
2023/03/18 05:49:19;;;;;;;38.80;18.95;;;;;;;1.34;70.07;95624.69;5030333;28;20024;-76
2023/03/18 05:51:45;;;;;;;69.38;30.77;;;;;;;0.75;70.20;95513.31;5029721;28;20411;-76
2023/03/18 05:54:11;;;;;;;98.78;43.95;;;;;;;0.99;69.68;95545.00;5028742;28;20048;-76
2023/03/18 05:56:38;;;;;;;106.88;46.88;;;;;;;1.61;70.30;95642.88;5012204;28;20033;-76
2023/03/18 05:59:04;;;;;;;107.70;46.30;;;;;;;1.10;69.84;95588.75;5012186;28;20034;-76
2023/03/18 06:01:31;;;;;;;99.47;44.13;;;;;;;1.32;69.79;95599.75;5029722;28;20514;-76
2023/03/18 06:03:58;;;;;;;86.88;37.88;;;;;;;1.63;69.81;95659.19;5030084;28;20041;-76
2023/03/18 06:06:24;;;;;;;73.25;33.72;;;;;;;0.91;69.71;95542.63;5029711;28;20040;-77
2023/03/18 06:08:51;;;;;;;62.20;29.27;;;;;;;1.23;70.10;95620.06;5030251;28;20042;-77
2023/03/18 06:11:17;;;;;;;65.10;28.33;;;;;;;1.47;70.05;95652.59;5012154;28;20479;-77
2023/03/18 06:13:43;;;;;;;69.78;28.25;;;;;;;1.55;69.96;95655.78;5027970;28;20029;-77
2023/03/18 06:16:09;;;;;;;57.38;25.67;;;;;;;1.08;69.85;95575.91;5028115;28;20514;-77
2023/03/18 06:18:35;;;;;;;58.60;26.52;;;;;;;1.10;69.57;95580.94;5029552;28;20033;-77
2023/03/18 06:21:00;;;;;;;49.65;22.75;;;;;;;0.21;69.92;95434.53;5029868;28;20065;-77
2023/03/18 06:23:26;;;;;;;46.90;23.40;;;;;;;0.88;69.71;95537.78;5029149;28;20029;-77
2023/03/18 06:25:52;;;;;;;52.90;23.25;;;;;;;1.74;69.17;95648.09;5029684;28;20036;-77
2023/03/18 06:28:17;;;;;;;53.47;24.00;;;;;;;1.17;69.66;95579.91;5029518;28;20045;-77
2023/03/18 06:30:43;;;;;;;55.17;24.15;;;;;;;1.51;69.50;95612.78;5029996;28;20044;-77
2023/03/18 06:33:09;;;;;;;52.83;25.08;;;;;;;1.50;69.49;95582.41;5011269;28;20506;-77
2023/03/18 06:35:35;;;;;;;43.92;23.58;;;;;;;1.15;69.56;95542.72;5027834;28;20545;-77
2023/03/18 06:38:01;;;;;;;45.53;23.58;;;;;;;1.76;69.62;95610.25;5011639;28;20061;-77
2023/03/18 06:40:27;;;;;;;45.78;22.45;;;;;;;1.04;68.82;95482.50;5029759;28;20073;-77
2023/03/18 06:42:52;;;;;;;55.58;24.40;;;;;;;1.69;68.94;95562.41;5028267;28;20067;-77
2023/03/18 06:45:18;;;;;;;53.38;26.20;;;;;;;1.99;69.38;95633.28;5028761;28;20484;-77
2023/03/18 06:47:45;;;;;;;53.45;26.88;;;;;;;1.29;69.44;95533.06;5028091;28;20120;-76
2023/03/18 06:50:12;;;;;;;53.38;26.20;;;;;;;1.96;69.34;95638.94;5028064;28;20540;-76
2023/03/18 06:52:38;;;;;;;57.22;26.10;;;;;;;1.60;69.98;95592.44;5029763;28;20045;-77
2023/03/18 06:55:05;;;;;;;53.08;27.60;;;;;;;2.02;69.63;95627.66;5028761;28;20029;-77
2023/03/18 06:57:31;;;;;;;52.50;25.27;;;;;;;2.13;69.42;95634.84;5029321;28;20108;-77
2023/03/18 06:59:57;;;;;;;55.88;26.55;;;;;;;2.02;69.35;95637.31;5029705;28;20453;-77
2023/03/18 07:02:24;;;;;;;58.15;28.27;;;;;;;1.65;70.29;95608.31;5029858;28;20040;-77
2023/03/18 07:04:51;;;;;;;53.67;27.85;;;;;;;1.71;70.63;95631.00;5029301;28;20040;-76
2023/03/18 07:07:16;;;;;;;70.72;32.13;;;;;;;1.08;70.46;95531.50;5011348;28;20033;-76
2023/03/18 07:09:43;;;;;;;62.13;30.33;;;;;;;1.71;71.37;95625.78;5029289;28;20041;-77
2023/03/18 07:12:12;;;;;;;57.08;30.67;;;;;;;1.45;70.57;95571.75;5028017;28;20034;-77
2023/03/18 07:14:38;;;;;;;64.28;31.10;;;;;;;1.88;71.08;95629.53;5028753;28;20041;-77
2023/03/18 07:17:04;;;;;;;63.58;31.50;;;;;;;1.82;71.21;95629.56;5028999;28;20045;-76
2023/03/18 07:19:31;;;;;;;65.78;32.13;;;;;;;1.75;70.99;95629.59;5028868;28;20503;-76
2023/03/18 07:21:56;;;;;;;64.53;31.85;;;;;;;0.61;72.38;95453.53;5014178;28;20445;-78
2023/03/18 07:24:22;;;;;;;57.53;30.05;;;;;;;1.75;72.28;95632.19;5033167;28;20044;-76
2023/03/18 07:26:49;;;;;;;65.78;30.40;;;;;;;1.43;71.59;95565.97;5030884;28;20051;-76
2023/03/18 07:29:15;;;;;;;63.10;30.65;;;;;;;1.00;71.53;95487.31;5032904;28;20471;-77
2023/03/18 07:31:42;;;;;;;75.00;31.20;;;;;;;1.84;72.55;95630.94;5032783;28;20037;-77
2023/03/18 07:34:08;;;;;;;71.25;32.45;;;;;;;1.16;72.78;95517.41;5011337;28;20053;-77
2023/03/18 07:36:35;;;;;;;65.65;32.85;;;;;;;1.73;72.49;95599.41;5010915;28;20029;-77
2023/03/18 07:39:02;;;;;;;69.90;34.55;;;;;;;2.25;71.63;95634.97;5028221;28;20034;-77
2023/03/18 07:41:28;;;;;;;62.53;31.13;;;;;;;1.50;71.68;95511.84;5013075;28;20033;-77
2023/03/18 07:43:54;;;;;;;69.80;31.50;;;;;;;1.81;71.28;95526.75;5011373;28;20083;-77
2023/03/18 07:46:20;;;;;;;59.85;28.40;;;;;;;2.16;71.05;95570.81;5011077;28;20034;-77
2023/03/18 07:48:45;;;;;;;63.53;30.75;;;;;;;2.02;70.91;95556.22;5013150;28;20133;-77
2023/03/18 07:51:11;;;;;;;55.72;29.58;;;;;;;2.29;71.53;95597.69;5013273;28;20487;-77
2023/03/18 07:53:37;;;;;;;62.28;32.03;;;;;;;2.56;71.38;95629.75;5011278;28;20091;-77
2023/03/18 07:56:04;;;;;;;63.30;29.42;;;;;;;2.21;70.61;95548.22;5011891;28;20463;-77
2023/03/18 07:58:29;;;;;;;62.38;30.40;;;;;;;2.48;70.93;95587.31;5011822;28;20034;-77
2023/03/18 08:00:55;;;;;;;59.67;30.27;;;;;;;2.31;70.99;95566.06;5011241;28;20143;-76
2023/03/18 08:03:21;;;;;;;56.08;28.38;;;;;;;1.97;70.83;95509.78;5009333;28;20053;-76
2023/03/18 08:05:46;;;;;;;61.90;29.60;;;;;;;2.82;70.83;95622.69;5011945;28;20033;-77
2023/03/18 08:08:12;;;;;;;71.05;29.55;;;;;;;2.00;71.16;95500.69;5011289;28;20038;-77
2023/03/18 08:10:37;;;;;;;54.10;27.98;;;;;;;2.95;70.92;95620.75;5012294;28;20049;-77
2023/03/18 08:13:03;;;;;;;56.38;28.08;;;;;;;2.49;70.63;95562.72;5011231;28;20042;-78
2023/03/18 08:15:28;;;;;;;53.20;26.25;;;;;;;2.36;69.96;95518.34;5011989;28;20038;-78
2023/03/18 08:17:53;;;;;;;55.38;26.70;;;;;;;2.93;70.16;95620.16;5010032;28;20038;-77
2023/03/18 08:20:20;;;;;;;54.78;27.02;;;;;;;2.66;70.20;95585.56;5010821;28;20033;-77
2023/03/18 08:22:45;;;;;;;58.30;29.23;;;;;;;2.87;70.66;95601.91;5012537;28;20137;-78
2023/03/18 08:25:11;;;;;;;63.28;28.80;;;;;;;2.50;70.66;95544.19;5012202;28;20323;-78
2023/03/18 08:27:37;;;;;;;49.05;27.25;;;;;;;3.06;69.89;95614.00;5027058;28;20071;-77
2023/03/18 08:30:03;;;;;;;64.10;29.20;;;;;;;3.40;69.72;95626.59;5011098;28;20041;-77
2023/03/18 08:32:29;;;;;;;51.83;27.65;;;;;;;3.48;69.32;95628.13;5009587;28;20049;-78
2023/03/18 08:34:55;;;;;;;53.40;27.85;;;;;;;3.04;69.19;95553.16;5010263;28;20073;-77
2023/03/18 08:37:21;;;;;;;45.47;25.55;;;;;;;3.08;69.72;95560.38;5011982;28;20095;-77
2023/03/18 08:39:46;;;;;;;42.42;22.20;;;;;;;3.26;68.57;95556.16;5011008;28;20037;-77
2023/03/18 08:42:12;;;;;;;45.30;23.90;;;;;;;3.37;68.58;95571.16;5011428;28;20045;-77
2023/03/18 08:44:39;;;;;;;45.63;24.73;;;;;;;3.22;69.08;95534.00;5027025;28;20037;-78
2023/03/18 08:47:05;;;;;;;46.47;26.52;;;;;;;3.74;68.38;95591.09;5011593;28;20471;-78
2023/03/18 08:49:31;;;;;;;58.40;25.48;;;;;;;3.16;67.97;95503.44;5011541;28;20068;-77
2023/03/18 08:51:56;;;;;;;35.22;17.50;;;;;;;3.75;65.73;95624.16;5011429;28;20065;-78
2023/03/18 08:54:22;;;;;;;39.30;21.83;;;;;;;3.58;66.26;95628.41;5026607;28;20485;-77
2023/03/18 08:56:47;;;;;;;48.88;20.38;;;;;;;3.55;66.34;95601.81;5011513;28;20040;-78
2023/03/18 08:59:12;;;;;;;36.63;19.05;;;;;;;3.33;66.32;95547.22;5026116;28;20034;-77
2023/03/18 09:01:38;;;;;;;31.20;16.98;;;;;;;3.37;64.58;95548.34;5011418;28;20037;-77
2023/03/18 09:04:04;;;;;;;37.03;19.58;;;;;;;3.47;64.77;95555.72;5026259;28;20045;-77
2023/03/18 09:06:30;;;;;;;35.45;18.05;;;;;;;3.49;65.53;95540.56;5011362;28;20042;-77
2023/03/18 09:08:56;;;;;;;35.85;17.77;;;;;;;3.53;65.32;95517.31;5011581;28;20045;-77
2023/03/18 09:11:22;;;;;;;31.02;16.25;;;;;;;4.18;63.07;95605.69;5010949;28;20100;-77
2023/03/18 09:13:48;;;;;;;31.70;16.48;;;;;;;3.72;63.17;95505.78;5010049;28;20049;-77
2023/03/18 09:16:13;;;;;;;39.65;18.67;;;;;;;4.43;63.32;95607.31;5010860;28;20111;-77
2023/03/18 09:18:39;;;;;;;32.78;16.80;;;;;;;4.57;63.31;95627.16;5026136;28;20033;-78
2023/03/18 09:21:05;;;;;;;33.92;16.73;;;;;;;4.77;63.16;95632.09;5025516;28;20043;-78
2023/03/18 09:23:33;;;;;;;15.05;8.63;;;;;;;4.82;59.90;95632.19;5009838;28;20405;-77
2023/03/18 09:25:59;;;;;;;19.92;9.68;;;;;;;4.66;58.80;95586.38;5009054;28;20034;-77
2023/03/18 09:28:25;;;;;;;19.92;9.63;;;;;;;4.77;58.12;95597.94;5011282;28;20041;-77
2023/03/18 09:30:51;;;;;;;14.98;7.70;;;;;;;4.80;56.48;95577.28;5025978;28;20042;-77
2023/03/18 09:33:17;;;;;;;15.30;8.52;;;;;;;5.28;57.55;95631.44;5009469;28;20065;-78
2023/03/18 09:35:43;;;;;;;17.40;9.98;;;;;;;4.87;58.28;95551.69;5030021;28;20127;-77
2023/03/18 09:38:16;;;;;;;20.52;10.00;;;;;;;5.10;56.89;95568.47;5030700;28;20032;-77
2023/03/18 09:41:08;;;;;;;19.35;9.77;;;;;;;5.61;58.18;95633.50;5030742;28;20092;-78
2023/03/18 09:43:51;;;;;;;18.02;10.10;;;;;;;5.60;59.73;95626.63;5029903;28;20415;-78
2023/03/18 09:46:44;;;;;;;15.82;8.55;;;;;;;5.58;58.71;95626.03;5030381;28;20123;-77
2023/03/18 09:49:18;;;;;;;17.65;8.73;;;;;;;5.73;57.47;95613.22;5012689;28;20037;-77
2023/03/18 09:51:52;;;;;;;13.55;7.68;;;;;;;5.76;55.87;95618.00;5028861;28;20034;-77
2023/03/18 09:54:35;;;;;;;18.70;7.70;;;;;;;5.56;56.91;95563.16;5030110;28;20065;-77
2023/03/18 09:57:02;;;;;;;12.98;7.60;;;;;;;5.31;56.23;95497.69;5028901;28;20151;-77
2023/03/18 09:59:40;;;;;;;15.95;7.93;;;;;;;6.08;57.52;95603.44;5030555;28;20041;-77
2023/03/18 10:02:32;;;;;;;14.95;7.32;;;;;;;5.94;56.45;95570.50;5045140;28;20599;-77
2023/03/18 10:05:03;;;;;;;14.40;7.78;;;;;;;5.41;56.02;95476.84;5012405;28;20039;-77
2023/03/18 10:07:34;;;;;;;15.98;7.75;;;;;;;5.52;55.91;95490.19;5030313;28;20072;-77
2023/03/18 10:10:10;;;;;;;13.85;6.80;;;;;;;6.42;55.76;95588.50;5029677;28;20116;-77
2023/03/18 10:12:41;;;;;;;11.23;6.45;;;;;;;7.44;52.14;95613.81;5030132;28;20120;-78
2023/03/18 10:15:15;;;;;;;12.90;6.55;;;;;;;8.47;50.17;95615.63;5028247;28;20065;-77
2023/03/18 10:18:11;;;;;;;10.88;6.05;;;;;;;8.92;46.67;95549.13;5030329;28;20037;-77
2023/03/18 10:21:00;;;;;;;10.55;6.88;;;;;;;10.61;43.92;95523.84;5020413;28;20508;-78
2023/03/18 10:23:43;;;;;;;10.75;5.80;;;;;;;12.25;40.29;95614.38;5029833;28;20044;-78
2023/03/18 10:26:45;;;;;;;11.90;6.25;;;;;;;13.13;37.80;95610.94;5029990;28;20039;-79
2023/03/18 10:29:40;;;;;;;8.25;5.70;;;;;;;14.04;35.83;95610.03;5011004;28;20530;-78
2023/03/18 10:32:27;;;;;;;10.45;5.75;;;;;;;14.53;33.10;95576.91;5004196;28;20439;-79
2023/03/18 10:35:11;;;;;;;13.45;7.07;;;;;;;14.53;33.10;95576.91;5029617;28;20133;-79
2023/03/18 10:38:13;;;;;;;8.40;5.55;;;;;;;15.89;32.37;95602.50;5030487;28;20033;-79
2023/03/18 10:40:41;;;;;;;9.10;5.43;;;;;;;16.15;30.59;95521.47;5030357;28;20033;-79
2023/03/18 10:43:19;;;;;;;13.32;4.57;;;;;;;16.67;31.10;95606.84;5030262;28;20041;-78
2023/03/18 10:45:48;;;;;;;12.13;5.68;;;;;;;17.22;29.59;95583.34;5011817;28;20037;-79
2023/03/18 10:48:31;;;;;;;7.03;4.85;;;;;;;17.53;29.80;95535.91;5030303;28;20059;-78
2023/03/18 10:51:28;;;;;;;8.75;5.00;;;;;;;17.59;28.34;95593.66;5029751;28;20128;-79
2023/03/18 10:54:38;;;;;;;7.65;4.25;;;;;;;17.35;28.21;95594.00;5030096;28;20087;-79
2023/03/18 10:57:04;;;;;;;5.43;3.75;;;;;;;16.20;29.15;95524.03;4953612;28;20046;-79
2023/03/18 10:59:29;;;;;;;10.93;4.20;;;;;;;15.47;29.57;95520.66;4972303;28;20054;-79
2023/03/18 11:02:06;;;;;;;5.88;2.97;;;;;;;15.10;30.27;95583.81;4967742;28;20056;-78
2023/03/18 11:04:41;;;;;;;8.85;3.20;;;;;;;14.33;30.42;95507.81;5033616;28;20111;-79
2023/03/18 11:07:15;;;;;;;7.03;3.97;;;;;;;13.94;30.99;95578.19;5031543;28;20033;-79
2023/03/18 11:09:41;;;;;;;10.48;3.95;;;;;;;12.62;32.90;95541.28;5033491;28;20033;-78
2023/03/18 11:12:21;;;;;;;5.38;4.05;;;;;;;11.93;33.93;95465.13;5033126;28;20412;-79
2023/03/18 11:14:48;;;;;;;8.45;4.20;;;;;;;12.42;34.66;95598.06;5033349;28;20644;-78
2023/03/18 11:17:21;;;;;;;9.93;4.63;;;;;;;12.04;34.30;95590.81;5031105;28;20430;-79
2023/03/18 11:20:10;;;;;;;14.18;4.57;;;;;;;11.77;34.67;95546.78;5033413;28;20034;-79
2023/03/18 11:22:36;;;;;;;11.88;4.32;;;;;;;12.21;34.94;95544.19;5003215;28;20052;-79
2023/03/18 11:25:22;;;;;;;7.75;4.20;;;;;;;12.63;32.65;95549.00;5033287;28;20041;-79
2023/03/18 11:28:03;;;;;;;8.05;4.13;;;;;;;13.09;33.73;95585.91;5033510;28;20037;-79
2023/03/18 11:30:42;;;;;;;8.90;4.07;;;;;;;13.29;31.74;95556.47;5015534;28;20069;-79
2023/03/18 11:33:11;;;;;;;9.10;4.30;;;;;;;13.78;30.24;95576.75;5015434;28;20113;-79